createdAt,value
2023-03-12T00:00:55.988Z,2.51
2023-03-12T00:01:52.003Z,2.51
2023-03-12T00:02:47.615Z,2.51
2023-03-12T00:03:43.171Z,2.53
2023-03-12T00:04:38.640Z,2.51
2023-03-12T00:05:34.659Z,2.51
2023-03-12T00:06:30.669Z,2.48
2023-03-12T00:07:27.230Z,2.54
2023-03-12T00:08:22.771Z,2.50
2023-03-12T00:09:18.315Z,2.40
2023-03-12T00:10:25.132Z,2.51
2023-03-12T00:11:20.677Z,2.60
2023-03-12T00:12:16.230Z,2.53
2023-03-12T00:13:11.776Z,2.54
2023-03-12T00:14:07.347Z,2.58
2023-03-12T00:15:02.877Z,2.53
2023-03-12T00:15:58.440Z,2.57
2023-03-12T00:16:53.960Z,2.50
2023-03-12T00:17:49.494Z,2.54
2023-03-12T00:18:45.511Z,2.51
2023-03-12T00:19:41.521Z,2.51
2023-03-12T00:20:48.343Z,2.53
2023-03-12T00:21:43.914Z,2.54
2023-03-12T00:22:39.541Z,2.51
2023-03-12T00:23:35.574Z,2.47
2023-03-12T00:24:31.109Z,2.47
2023-03-12T00:25:27.673Z,2.42
2023-03-12T00:26:23.680Z,2.48
2023-03-12T00:27:19.251Z,2.50
2023-03-12T00:28:15.822Z,2.50
2023-03-12T00:29:11.377Z,2.50
2023-03-12T00:30:06.906Z,2.55
2023-03-12T00:31:02.565Z,2.47
2023-03-12T00:31:58.474Z,2.53
2023-03-12T00:32:54.560Z,2.50
2023-03-12T00:33:51.075Z,2.43
2023-03-12T00:34:46.613Z,2.43
2023-03-12T00:35:42.283Z,2.47
2023-03-12T00:36:38.182Z,2.50
2023-03-12T00:37:34.202Z,2.48
2023-03-12T00:38:30.264Z,2.45
2023-03-12T00:39:25.789Z,2.39
2023-03-12T00:40:21.347Z,2.51
2023-03-12T00:41:16.880Z,2.42
2023-03-12T00:42:12.409Z,2.43
2023-03-12T00:43:08.419Z,2.43
2023-03-12T00:44:03.965Z,2.50
2023-03-12T00:44:59.524Z,2.54
2023-03-12T00:45:55.052Z,2.40
2023-03-12T00:46:50.663Z,2.47
2023-03-12T00:47:46.141Z,2.47
2023-03-12T00:48:41.697Z,2.47
2023-03-12T00:49:37.236Z,2.53
2023-03-12T00:50:32.789Z,2.50
2023-03-12T00:51:28.828Z,2.42
2023-03-12T00:52:24.346Z,2.45
2023-03-12T00:53:20.373Z,2.36
2023-03-12T00:54:15.920Z,2.39
2023-03-12T00:55:11.538Z,2.37
2023-03-12T00:56:07.072Z,2.43
2023-03-12T00:57:03.089Z,2.42
2023-03-12T00:57:59.685Z,2.40
2023-03-12T00:58:55.745Z,2.43
2023-03-12T00:59:51.297Z,2.43
2023-03-12T01:00:46.913Z,2.42
2023-03-12T01:01:42.394Z,2.42
2023-03-12T01:02:37.922Z,2.42
2023-03-12T01:03:33.465Z,2.45
2023-03-12T01:04:29.076Z,2.36
2023-03-12T01:05:24.574Z,2.40
2023-03-12T01:06:20.607Z,2.40
2023-03-12T01:07:16.619Z,2.40
2023-03-12T01:08:12.160Z,2.42
2023-03-12T01:09:07.786Z,2.42
2023-03-12T01:10:03.279Z,2.43
2023-03-12T01:10:59.852Z,2.47
2023-03-12T01:11:55.378Z,2.57
2023-03-12T01:12:50.923Z,2.43
2023-03-12T01:13:46.481Z,2.53
2023-03-12T01:14:42.064Z,2.48
2023-03-12T01:15:38.079Z,2.53
2023-03-12T01:16:33.655Z,2.53
2023-03-12T01:17:29.164Z,2.48
2023-03-12T01:18:25.187Z,2.54
2023-03-12T01:19:20.733Z,2.54
2023-03-12T01:20:16.271Z,2.54
2023-03-12T01:21:11.819Z,2.61
2023-03-12T01:22:07.841Z,2.61
2023-03-12T01:23:03.378Z,2.60
2023-03-12T01:23:59.385Z,2.60
2023-03-12T01:24:54.930Z,2.58
2023-03-12T01:25:50.480Z,2.66
2023-03-12T01:26:46.028Z,2.57
2023-03-12T01:27:41.564Z,2.69
2023-03-12T01:28:37.106Z,2.60
2023-03-12T01:29:32.648Z,2.61
2023-03-12T01:30:28.203Z,2.63
2023-03-12T01:31:23.841Z,2.68
2023-03-12T01:32:08.447Z,2.65
2023-03-12T01:33:03.972Z,2.68
2023-03-12T01:33:59.515Z,2.68
2023-03-12T01:34:55.045Z,2.73
2023-03-12T01:35:50.786Z,2.68
2023-03-12T01:36:46.149Z,2.68
2023-03-12T01:37:41.706Z,2.61
2023-03-12T01:38:37.260Z,2.71
2023-03-12T01:39:32.788Z,2.72
2023-03-12T01:40:28.332Z,2.68
2023-03-12T01:41:23.869Z,2.69
2023-03-12T01:42:20.427Z,2.73
2023-03-12T01:43:16.437Z,2.69
2023-03-12T01:44:11.984Z,2.72
2023-03-12T01:45:07.526Z,2.73
2023-03-12T01:46:03.140Z,2.68
2023-03-12T01:46:58.621Z,2.69
2023-03-12T01:47:55.191Z,2.71
2023-03-12T01:48:50.741Z,2.71
2023-03-12T01:49:46.291Z,2.68
2023-03-12T01:50:41.825Z,2.69
2023-03-12T01:51:37.412Z,2.71
2023-03-12T01:52:32.937Z,2.75
2023-03-12T01:53:28.495Z,2.75
2023-03-12T01:54:24.027Z,2.68
2023-03-12T01:55:19.557Z,2.75
2023-03-12T01:56:15.091Z,2.65
2023-03-12T01:57:10.640Z,2.69
2023-03-12T01:58:06.205Z,2.73
2023-03-12T01:59:01.740Z,2.69
2023-03-12T01:59:57.744Z,2.65
2023-03-12T02:00:53.830Z,2.71
2023-03-12T02:01:49.356Z,2.72
2023-03-12T02:02:44.907Z,2.72
2023-03-12T02:03:42.000Z,2.66
2023-03-12T02:04:37.487Z,2.68
2023-03-12T02:05:33.506Z,2.65
2023-03-12T02:06:29.052Z,2.73
2023-03-12T02:07:25.092Z,2.73
2023-03-12T02:08:21.106Z,2.69
2023-03-12T02:09:16.653Z,2.69
2023-03-12T02:10:12.201Z,2.68
2023-03-12T02:11:08.213Z,2.75
2023-03-12T02:12:03.770Z,2.71
2023-03-12T02:12:59.305Z,2.73
2023-03-12T02:13:54.851Z,2.78
2023-03-12T02:14:50.396Z,2.84
2023-03-12T02:15:46.406Z,2.84
2023-03-12T02:16:41.996Z,2.76
2023-03-12T02:17:37.489Z,2.79
2023-03-12T02:18:33.042Z,2.78
2023-03-12T02:19:29.632Z,2.75
2023-03-12T02:20:25.132Z,2.82
2023-03-12T02:21:20.676Z,2.79
2023-03-12T02:22:17.228Z,2.75
2023-03-12T02:23:12.752Z,2.79
2023-03-12T02:24:08.313Z,2.84
2023-03-12T02:25:04.859Z,2.79
2023-03-12T02:26:00.885Z,2.86
2023-03-12T02:26:56.424Z,2.82
2023-03-12T02:27:51.964Z,2.97
2023-03-12T02:28:58.774Z,2.93
2023-03-12T02:29:54.318Z,2.86
2023-03-12T02:30:49.861Z,2.93
2023-03-12T02:31:45.497Z,2.91
2023-03-12T02:32:41.040Z,2.84
2023-03-12T02:33:36.495Z,2.84
2023-03-12T02:34:32.546Z,2.89
2023-03-12T02:35:28.120Z,2.91
2023-03-12T02:36:23.638Z,2.96
2023-03-12T02:37:19.179Z,2.90
2023-03-12T02:38:14.710Z,2.94
2023-03-12T02:39:10.250Z,2.90
2023-03-12T02:40:05.806Z,2.90
2023-03-12T02:41:01.814Z,2.89
2023-03-12T02:41:57.865Z,2.99
2023-03-12T02:42:53.875Z,2.93
2023-03-12T02:43:49.407Z,2.93
2023-03-12T02:44:44.971Z,2.97
2023-03-12T02:45:40.999Z,2.96
2023-03-12T02:46:36.997Z,2.99
2023-03-12T02:47:33.016Z,2.97
2023-03-12T02:48:28.089Z,2.93
2023-03-12T02:49:23.633Z,3.05
2023-03-12T02:50:19.190Z,2.94
2023-03-12T02:51:14.748Z,3.02
2023-03-12T02:52:10.273Z,2.97
2023-03-12T02:53:05.809Z,2.96
2023-03-12T02:54:01.831Z,3.05
2023-03-12T02:54:57.361Z,3.00
2023-03-12T02:55:52.896Z,2.96
2023-03-12T02:56:48.446Z,3.08
2023-03-12T02:57:44.998Z,3.02
2023-03-12T02:58:40.540Z,3.04
2023-03-12T02:59:36.562Z,3.05
2023-03-12T03:00:32.087Z,3.02
2023-03-12T03:01:27.709Z,3.08
2023-03-12T03:02:23.182Z,3.09
2023-03-12T03:03:18.720Z,3.08
2023-03-12T03:04:14.335Z,3.11
2023-03-12T03:05:09.813Z,3.05
2023-03-12T03:06:05.364Z,3.08
2023-03-12T03:07:00.934Z,3.11
2023-03-12T03:07:56.473Z,3.09
2023-03-12T03:08:52.031Z,3.07
2023-03-12T03:09:36.695Z,3.09
2023-03-12T03:10:32.240Z,3.07
2023-03-12T03:11:27.779Z,3.04
2023-03-12T03:12:23.782Z,3.09
2023-03-12T03:13:19.321Z,3.08
2023-03-12T03:14:14.870Z,3.09
2023-03-12T03:15:10.429Z,3.05
2023-03-12T03:16:06.023Z,3.02
2023-03-12T03:17:01.529Z,2.94
2023-03-12T03:17:58.084Z,3.07
2023-03-12T03:18:53.636Z,3.05
2023-03-12T03:19:49.193Z,2.97
2023-03-12T03:20:44.754Z,2.97
2023-03-12T03:21:40.291Z,2.97
2023-03-12T03:22:35.856Z,3.02
2023-03-12T03:23:31.371Z,2.97
2023-03-12T03:24:27.924Z,2.94
2023-03-12T03:25:23.463Z,2.99
2023-03-12T03:26:19.030Z,2.99
2023-03-12T03:27:14.562Z,2.89
2023-03-12T03:28:10.125Z,2.91
2023-03-12T03:29:05.746Z,2.90
2023-03-12T03:30:01.754Z,2.87
2023-03-12T03:30:57.316Z,2.87
2023-03-12T03:31:52.842Z,2.86
2023-03-12T03:32:48.444Z,2.82
2023-03-12T03:33:43.932Z,2.87
2023-03-12T03:34:39.469Z,2.84
2023-03-12T03:35:35.046Z,2.82
2023-03-12T03:36:19.668Z,2.89
2023-03-12T03:37:15.222Z,2.73
2023-03-12T03:38:10.818Z,2.81
2023-03-12T03:39:06.804Z,2.79
2023-03-12T03:40:02.827Z,2.84
2023-03-12T03:40:58.450Z,2.82
2023-03-12T03:41:53.990Z,2.82
2023-03-12T03:42:49.536Z,2.69
2023-03-12T03:43:45.084Z,2.75
2023-03-12T03:44:40.623Z,2.72
2023-03-12T03:45:36.161Z,2.68
2023-03-12T03:46:31.810Z,2.66
2023-03-12T03:47:27.251Z,2.69
2023-03-12T03:48:23.268Z,2.78
2023-03-12T03:49:18.863Z,2.78
2023-03-12T03:50:14.423Z,2.75
2023-03-12T03:51:09.902Z,2.65
2023-03-12T03:52:05.447Z,2.61
2023-03-12T03:53:00.992Z,2.69
2023-03-12T03:53:56.544Z,2.69
2023-03-12T03:54:52.112Z,2.66
2023-03-12T03:55:48.124Z,2.58
2023-03-12T03:56:43.652Z,2.61
2023-03-12T03:57:39.658Z,2.57
2023-03-12T03:58:35.202Z,2.60
2023-03-12T03:59:30.760Z,2.60
2023-03-12T04:00:26.796Z,2.58
2023-03-12T04:01:22.333Z,2.60
2023-03-12T04:02:17.877Z,2.54
2023-03-12T04:03:13.501Z,2.54
2023-03-12T04:04:08.977Z,2.53
2023-03-12T04:05:04.503Z,2.53
2023-03-12T04:06:00.077Z,2.57
2023-03-12T04:06:56.079Z,2.51
2023-03-12T04:07:51.659Z,2.51
2023-03-12T04:08:47.204Z,2.53
2023-03-12T04:09:42.775Z,2.53
2023-03-12T04:10:38.305Z,2.53
2023-03-12T04:11:33.840Z,2.48
2023-03-12T04:12:29.386Z,2.51
2023-03-12T04:13:24.912Z,2.47
2023-03-12T04:14:20.669Z,2.47
2023-03-12T04:15:16.213Z,2.57
2023-03-12T04:16:11.816Z,2.53
2023-03-12T04:17:07.771Z,2.53
2023-03-12T04:18:03.374Z,2.39
2023-03-12T04:19:00.340Z,2.37
2023-03-12T04:19:55.877Z,2.40
2023-03-12T04:20:51.427Z,2.39
2023-03-12T04:21:47.447Z,2.57
2023-03-12T04:22:44.007Z,2.37
2023-03-12T04:23:40.022Z,2.36
2023-03-12T04:24:36.050Z,2.33
2023-03-12T04:25:31.720Z,2.36
2023-03-12T04:26:27.682Z,2.35
2023-03-12T04:27:23.225Z,2.39
2023-03-12T04:28:18.762Z,2.39
2023-03-12T04:29:14.779Z,2.37
2023-03-12T04:30:10.806Z,2.28
2023-03-12T04:31:06.854Z,2.30
2023-03-12T04:32:02.852Z,2.36
2023-03-12T04:32:58.377Z,2.37
2023-03-12T04:33:53.923Z,2.36
2023-03-12T04:34:49.937Z,2.35
2023-03-12T04:35:45.560Z,2.35
2023-03-12T04:36:41.059Z,2.37
2023-03-12T04:37:36.600Z,2.32
2023-03-12T04:38:32.153Z,2.32
2023-03-12T04:39:27.679Z,2.24
2023-03-12T04:40:23.708Z,2.28
2023-03-12T04:41:19.288Z,2.25
2023-03-12T04:42:15.273Z,2.24
2023-03-12T04:43:10.818Z,2.25
2023-03-12T04:44:06.360Z,2.29
2023-03-12T04:45:01.889Z,2.30
2023-03-12T04:45:57.425Z,2.28
2023-03-12T04:46:53.131Z,2.21
2023-03-12T04:47:48.513Z,2.35
2023-03-12T04:48:44.069Z,2.28
2023-03-12T04:49:40.624Z,2.25
2023-03-12T04:50:36.632Z,2.24
2023-03-12T04:51:32.174Z,2.28
2023-03-12T04:52:28.204Z,2.29
2023-03-12T04:53:24.243Z,2.22
2023-03-12T04:54:19.767Z,2.24
2023-03-12T04:55:15.299Z,2.22
2023-03-12T04:56:10.845Z,2.25
2023-03-12T04:57:06.409Z,2.17
2023-03-12T04:58:01.951Z,2.12
2023-03-12T04:58:57.490Z,2.29
2023-03-12T04:59:53.034Z,2.24
2023-03-12T05:00:48.598Z,2.25
2023-03-12T05:01:44.620Z,2.18
2023-03-12T05:02:40.670Z,2.14
2023-03-12T05:03:36.288Z,2.17
2023-03-12T05:04:33.636Z,2.18
2023-03-12T05:05:27.279Z,2.15
2023-03-12T05:06:22.827Z,2.11
2023-03-12T05:07:18.364Z,2.14
2023-03-12T05:08:14.423Z,2.19
2023-03-12T05:09:09.973Z,2.15
2023-03-12T05:10:05.553Z,2.07
2023-03-12T05:11:01.100Z,2.15
2023-03-12T05:11:57.112Z,2.17
2023-03-12T05:12:52.665Z,2.21
2023-03-12T05:13:48.218Z,2.15
2023-03-12T05:14:43.772Z,2.10
2023-03-12T05:15:39.797Z,2.14
2023-03-12T05:16:35.378Z,2.10
2023-03-12T05:17:30.894Z,2.11
2023-03-12T05:18:26.453Z,2.11
2023-03-12T05:19:22.011Z,2.11
2023-03-12T05:20:17.549Z,2.03
2023-03-12T05:21:13.085Z,2.04
2023-03-12T05:22:09.099Z,1.93
2023-03-12T05:23:04.663Z,1.97
2023-03-12T05:24:00.222Z,2.01
2023-03-12T05:24:55.735Z,1.97
2023-03-12T05:25:51.269Z,1.95
2023-03-12T05:26:46.854Z,2.03
2023-03-12T05:27:42.398Z,2.01
2023-03-12T05:28:38.434Z,2.03
2023-03-12T05:29:33.967Z,2.01
2023-03-12T05:30:29.984Z,1.97
2023-03-12T05:31:25.552Z,2.00
2023-03-12T05:32:21.147Z,2.01
2023-03-12T05:33:16.608Z,1.97
2023-03-12T05:34:12.152Z,1.97
2023-03-12T05:35:07.703Z,1.95
2023-03-12T05:36:03.346Z,1.95
2023-03-12T05:36:58.782Z,2.00
2023-03-12T05:37:54.328Z,1.99
2023-03-12T05:38:50.333Z,1.99
2023-03-12T05:39:45.870Z,2.00
2023-03-12T05:40:41.420Z,1.91
2023-03-12T05:41:36.952Z,1.97
2023-03-12T05:42:32.489Z,1.99
2023-03-12T05:43:28.029Z,1.99
2023-03-12T05:44:24.063Z,1.93
2023-03-12T05:45:19.579Z,1.95
2023-03-12T05:46:15.163Z,1.95
2023-03-12T05:47:10.707Z,1.95
2023-03-12T05:48:06.248Z,1.99
2023-03-12T05:49:01.787Z,1.99
2023-03-12T05:49:57.334Z,1.91
2023-03-12T05:50:53.342Z,1.97
2023-03-12T05:51:48.878Z,1.95
2023-03-12T05:52:44.421Z,1.91
2023-03-12T05:53:40.440Z,1.99
2023-03-12T05:54:36.069Z,1.91
2023-03-12T05:55:31.714Z,1.92
2023-03-12T05:56:28.270Z,1.95
2023-03-12T05:57:23.807Z,1.93
2023-03-12T05:58:19.355Z,1.93
2023-03-12T05:59:14.888Z,1.89
2023-03-12T06:00:21.723Z,1.99
2023-03-12T06:01:17.732Z,1.99
2023-03-12T06:02:13.767Z,1.97
2023-03-12T06:03:09.407Z,2.01
2023-03-12T06:04:05.833Z,1.99
2023-03-12T06:05:01.384Z,1.95
2023-03-12T06:05:56.899Z,1.92
2023-03-12T06:06:52.448Z,1.93
2023-03-12T06:07:47.995Z,1.93
2023-03-12T06:08:43.556Z,2.01
2023-03-12T06:09:39.572Z,1.99
2023-03-12T06:10:35.689Z,1.99
2023-03-12T06:11:31.236Z,1.95
2023-03-12T06:12:26.823Z,1.97
2023-03-12T06:13:23.617Z,1.97
2023-03-12T06:14:19.132Z,1.99
2023-03-12T06:15:14.622Z,2.00
2023-03-12T06:16:10.635Z,1.99
2023-03-12T06:17:05.959Z,1.95
2023-03-12T06:18:01.535Z,2.01
2023-03-12T06:18:59.665Z,1.97
2023-03-12T06:19:54.428Z,2.06
2023-03-12T06:20:49.960Z,2.06
2023-03-12T06:21:45.491Z,2.14
2023-03-12T06:22:41.021Z,2.15
2023-03-12T06:23:36.550Z,2.12
2023-03-12T06:24:32.098Z,2.32
2023-03-12T06:25:27.645Z,2.28
2023-03-12T06:26:23.144Z,2.28
2023-03-12T06:27:18.664Z,2.22
2023-03-12T06:28:14.200Z,2.25
2023-03-12T06:29:09.720Z,2.30
2023-03-12T06:30:05.271Z,2.30
2023-03-12T06:31:00.804Z,2.37
2023-03-12T06:31:56.471Z,2.29
2023-03-12T06:32:51.947Z,2.39
2023-03-12T06:33:47.360Z,2.36
2023-03-12T06:34:42.890Z,2.42
2023-03-12T06:35:38.531Z,2.47
2023-03-12T06:36:33.950Z,2.51
2023-03-12T06:37:29.466Z,2.51
2023-03-12T06:38:24.990Z,2.47
2023-03-12T06:39:20.536Z,2.51
2023-03-12T06:40:16.078Z,2.55
2023-03-12T06:41:11.620Z,2.57
2023-03-12T06:42:07.159Z,2.61
2023-03-12T06:43:02.680Z,2.55
2023-03-12T06:43:58.195Z,2.65
2023-03-12T06:44:53.715Z,2.66
2023-03-12T06:45:49.242Z,2.76
2023-03-12T06:46:44.895Z,2.79
2023-03-12T06:47:40.337Z,2.76
2023-03-12T06:48:35.848Z,2.82
2023-03-12T06:49:31.368Z,2.78
2023-03-12T06:50:26.916Z,2.86
2023-03-12T06:51:22.449Z,2.91
2023-03-12T06:52:17.984Z,2.90
2023-03-12T06:53:13.513Z,2.97
2023-03-12T06:54:09.046Z,2.96
2023-03-12T06:55:04.581Z,2.97
2023-03-12T06:56:00.123Z,3.07
2023-03-12T06:56:55.651Z,2.96
2023-03-12T06:57:51.201Z,3.07
2023-03-12T06:58:46.742Z,3.12
2023-03-12T06:59:42.287Z,3.11
2023-03-12T07:00:37.856Z,3.08
2023-03-12T07:01:33.396Z,3.11
2023-03-12T07:02:29.045Z,3.08
2023-03-12T07:03:24.498Z,3.17
2023-03-12T07:04:20.038Z,3.12
2023-03-12T07:05:15.587Z,3.27
2023-03-12T07:06:11.118Z,3.29
2023-03-12T07:07:07.708Z,3.30
2023-03-12T07:08:03.251Z,3.25
2023-03-12T07:08:58.779Z,3.20
2023-03-12T07:09:54.335Z,3.37
2023-03-12T07:10:49.889Z,3.37
2023-03-12T07:11:45.441Z,3.37
2023-03-12T07:12:40.988Z,3.49
2023-03-12T07:13:36.560Z,3.52
2023-03-12T07:14:32.124Z,3.49
2023-03-12T07:15:27.667Z,3.52
2023-03-12T07:16:23.260Z,3.54
2023-03-12T07:17:19.236Z,3.62
2023-03-12T07:18:15.792Z,3.66
2023-03-12T07:19:11.884Z,3.64
2023-03-12T07:20:07.358Z,3.60
2023-03-12T07:21:02.924Z,3.70
2023-03-12T07:21:58.934Z,3.73
2023-03-12T07:22:54.476Z,3.72
2023-03-12T07:23:50.489Z,3.81
2023-03-12T07:24:46.046Z,3.80
2023-03-12T07:25:41.590Z,3.90
2023-03-12T07:26:37.170Z,3.90
2023-03-12T07:27:32.716Z,3.92
2023-03-12T07:28:28.337Z,4.00
2023-03-12T07:29:23.875Z,3.99
2023-03-12T07:30:19.897Z,4.10
2023-03-12T07:31:15.475Z,4.10
2023-03-12T07:32:11.043Z,4.10
2023-03-12T07:33:06.706Z,4.20
2023-03-12T07:34:02.161Z,4.17
2023-03-12T07:34:57.658Z,4.17
2023-03-12T07:35:53.288Z,4.17
2023-03-12T07:36:48.941Z,4.21
2023-03-12T07:37:44.317Z,4.34
2023-03-12T07:38:39.856Z,4.41
2023-03-12T07:39:35.414Z,4.41
2023-03-12T07:40:31.008Z,4.45
2023-03-12T07:41:26.596Z,4.42
2023-03-12T07:42:22.086Z,4.54
2023-03-12T07:43:20.337Z,4.49
2023-03-12T07:44:14.146Z,4.46
2023-03-12T07:45:10.142Z,4.64
2023-03-12T07:46:06.157Z,4.61
2023-03-12T07:47:16.466Z,4.61
2023-03-12T07:47:57.788Z,4.75
2023-03-12T07:48:55.254Z,4.75
2023-03-12T07:49:50.411Z,4.77
2023-03-12T07:50:46.160Z,4.82
2023-03-12T07:51:41.428Z,4.85
2023-03-12T07:52:37.578Z,4.86
2023-03-12T07:53:33.113Z,4.94
2023-03-12T07:54:28.698Z,4.94
2023-03-12T07:55:24.744Z,4.97
2023-03-12T07:56:20.338Z,5.01
2023-03-12T07:57:15.855Z,5.11
2023-03-12T07:58:00.473Z,5.09
2023-03-12T07:58:56.140Z,5.09
2023-03-12T07:59:52.486Z,5.16
2023-03-12T08:00:48.081Z,5.16
2023-03-12T08:01:32.869Z,5.22
2023-03-12T08:02:28.446Z,5.19
2023-03-12T08:03:24.094Z,5.25
2023-03-12T08:04:19.935Z,5.43
2023-03-12T08:05:15.920Z,5.52
2023-03-12T08:06:11.995Z,5.61
2023-03-12T08:07:09.291Z,5.84
2023-03-12T08:08:03.987Z,5.85
2023-03-12T08:09:00.026Z,5.90
2023-03-12T08:09:56.049Z,6.09
2023-03-12T08:10:52.056Z,6.16
2023-03-12T08:11:48.262Z,6.25
2023-03-12T08:12:44.296Z,6.31
2023-03-12T08:13:40.163Z,6.52
2023-03-12T08:14:36.300Z,6.61
2023-03-12T08:15:32.234Z,6.79
2023-03-12T08:16:28.273Z,6.93
2023-03-12T08:17:24.281Z,7.06
2023-03-12T08:18:20.312Z,7.16
2023-03-12T08:19:15.887Z,7.36
2023-03-12T08:20:12.975Z,7.50
2023-03-12T08:21:09.015Z,7.55
2023-03-12T08:22:06.066Z,7.71
2023-03-12T08:23:02.062Z,7.94
2023-03-12T08:23:58.132Z,8.04
2023-03-12T08:24:54.149Z,8.14
2023-03-12T08:25:50.208Z,8.23
2023-03-12T08:26:46.206Z,8.34
2023-03-12T08:27:41.756Z,8.53
2023-03-12T08:28:38.239Z,8.53
2023-03-12T08:29:33.948Z,8.65
2023-03-12T08:30:30.402Z,8.89
2023-03-12T08:31:25.577Z,8.96
2023-03-12T08:32:21.233Z,9.15
2023-03-12T08:33:17.100Z,9.29
2023-03-12T08:34:13.121Z,9.37
2023-03-12T08:35:09.244Z,9.55
2023-03-12T08:36:06.422Z,9.66
2023-03-12T08:37:03.338Z,9.84
2023-03-12T08:37:58.907Z,9.96
2023-03-12T08:38:54.952Z,10.06
2023-03-12T08:39:50.520Z,10.16
2023-03-12T08:40:46.545Z,10.23
2023-03-12T08:41:42.603Z,10.31
2023-03-12T08:42:38.636Z,10.31
2023-03-12T08:43:35.244Z,10.45
2023-03-12T08:44:30.787Z,10.58
2023-03-12T08:45:26.817Z,10.79
2023-03-12T08:46:23.042Z,10.93
2023-03-12T08:47:18.958Z,11.03
2023-03-12T08:48:15.520Z,11.01
2023-03-12T08:49:11.545Z,11.19
2023-03-12T08:50:07.587Z,11.28
2023-03-12T08:51:04.624Z,11.38
2023-03-12T08:52:00.665Z,11.45
2023-03-12T08:52:56.687Z,11.66
2023-03-12T08:53:52.739Z,11.67
2023-03-12T08:54:48.278Z,11.73
2023-03-12T08:55:44.304Z,11.82
2023-03-12T08:56:40.326Z,11.97
2023-03-12T08:57:36.357Z,12.11
2023-03-12T08:58:32.399Z,12.10
2023-03-12T08:59:28.453Z,12.17
2023-03-12T09:00:24.450Z,12.30
2023-03-12T09:01:20.464Z,12.33
2023-03-12T09:02:17.489Z,12.44
2023-03-12T09:03:13.124Z,12.47
2023-03-12T09:04:09.123Z,12.61
2023-03-12T09:05:05.133Z,12.59
2023-03-12T09:06:00.699Z,12.72
2023-03-12T09:06:56.740Z,12.91
2023-03-12T09:07:52.759Z,13.01
2023-03-12T09:08:48.792Z,13.29
2023-03-12T09:09:44.878Z,13.45
2023-03-12T09:10:40.887Z,13.71
2023-03-12T09:11:36.907Z,13.90
2023-03-12T09:12:32.942Z,14.03
2023-03-12T09:13:40.642Z,14.16
2023-03-12T09:15:21.015Z,14.41
2023-03-12T09:16:18.107Z,14.61
2023-03-12T09:17:14.114Z,14.78
2023-03-12T09:18:11.151Z,14.86
2023-03-12T09:19:07.180Z,15.04
2023-03-12T09:20:03.225Z,15.22
2023-03-12T09:21:00.279Z,15.44
2023-03-12T09:21:56.302Z,15.43
2023-03-12T09:22:52.333Z,15.58
2023-03-12T09:23:48.370Z,15.38
2023-03-12T09:24:44.400Z,15.45
2023-03-12T09:25:40.477Z,15.58
2023-03-12T09:26:36.014Z,15.68
2023-03-12T09:27:32.054Z,15.90
2023-03-12T09:28:38.871Z,15.91
2023-03-12T09:29:34.897Z,16.08
2023-03-12T09:30:31.146Z,16.33
2023-03-12T09:31:26.498Z,16.33
2023-03-12T09:32:22.560Z,16.32
2023-03-12T09:33:18.591Z,16.43
2023-03-12T09:34:14.145Z,16.52
2023-03-12T09:35:10.173Z,16.54
2023-03-12T09:36:06.278Z,16.61
2023-03-12T09:37:02.255Z,16.55
2023-03-12T09:37:58.310Z,16.54
2023-03-12T09:38:54.342Z,16.52
2023-03-12T09:39:50.394Z,16.59
2023-03-12T09:40:46.429Z,16.64
2023-03-12T09:41:42.501Z,16.64
2023-03-12T09:42:38.480Z,16.62
2023-03-12T09:43:34.508Z,16.61
2023-03-12T09:44:31.594Z,16.58
2023-03-12T09:45:27.586Z,16.49
2023-03-12T09:46:23.224Z,16.54
2023-03-12T09:47:19.275Z,16.65
2023-03-12T09:48:15.293Z,16.79
2023-03-12T09:49:11.338Z,16.99
2023-03-12T09:50:07.363Z,17.14
2023-03-12T09:51:02.920Z,17.04
2023-03-12T09:51:58.946Z,17.12
2023-03-12T09:52:55.027Z,17.22
2023-03-12T09:53:50.596Z,17.27
2023-03-12T09:54:47.644Z,17.38
2023-03-12T09:55:42.665Z,17.53
2023-03-12T09:56:38.705Z,17.71
2023-03-12T09:57:34.853Z,17.88
2023-03-12T09:58:30.879Z,18.08
2023-03-12T09:59:27.903Z,17.97
2023-03-12T10:00:23.962Z,17.93
2023-03-12T10:01:20.001Z,17.96
2023-03-12T10:02:16.039Z,18.08
2023-03-12T10:03:12.128Z,18.01
2023-03-12T10:04:08.267Z,17.90
2023-03-12T10:05:04.237Z,17.81
2023-03-12T10:05:59.783Z,17.73
2023-03-12T10:06:55.795Z,17.65
2023-03-12T10:07:51.338Z,17.78
2023-03-12T10:08:47.371Z,17.62
2023-03-12T10:09:43.398Z,17.68
2023-03-12T10:10:40.430Z,17.71
2023-03-12T10:11:36.488Z,17.88
2023-03-12T10:12:32.551Z,17.97
2023-03-12T10:13:28.106Z,18.08
2023-03-12T10:14:24.525Z,18.13
2023-03-12T10:15:19.710Z,17.88
2023-03-12T10:16:15.862Z,18.05
2023-03-12T10:17:11.813Z,17.93
2023-03-12T10:18:07.983Z,18.02
2023-03-12T10:19:04.037Z,17.96
2023-03-12T10:19:59.948Z,18.08
2023-03-12T10:20:56.009Z,17.91
2023-03-12T10:21:52.093Z,17.94
2023-03-12T10:22:48.091Z,18.08
2023-03-12T10:23:44.139Z,18.23
2023-03-12T10:24:40.178Z,18.27
2023-03-12T10:25:35.743Z,18.39
2023-03-12T10:26:32.314Z,18.51
2023-03-12T10:27:28.359Z,18.48
2023-03-12T10:28:24.417Z,18.46
2023-03-12T10:29:19.951Z,18.58
2023-03-12T10:30:16.992Z,18.68
2023-03-12T10:31:12.702Z,18.81
2023-03-12T10:32:08.119Z,18.93
2023-03-12T10:33:04.200Z,18.91
2023-03-12T10:33:59.773Z,19.00
2023-03-12T10:34:55.351Z,19.04
2023-03-12T10:35:50.948Z,19.27
2023-03-12T10:36:46.481Z,19.30
2023-03-12T10:37:42.504Z,19.24
2023-03-12T10:38:38.534Z,19.09
2023-03-12T10:39:34.100Z,19.09
2023-03-12T10:40:29.656Z,19.07
2023-03-12T10:41:25.719Z,18.76
2023-03-12T10:42:21.737Z,18.74
2023-03-12T10:43:17.800Z,18.58
2023-03-12T10:44:13.838Z,18.63
2023-03-12T10:45:09.845Z,18.68
2023-03-12T10:46:05.959Z,18.86
2023-03-12T10:47:01.928Z,18.94
2023-03-12T10:47:57.957Z,19.04
2023-03-12T10:48:53.513Z,19.04
2023-03-12T10:49:49.536Z,19.17
2023-03-12T10:50:45.568Z,19.24
2023-03-12T10:51:41.607Z,19.12
2023-03-12T10:52:37.653Z,18.96
2023-03-12T10:53:33.680Z,18.86
2023-03-12T10:54:29.718Z,18.76
2023-03-12T10:55:25.734Z,18.57
2023-03-12T10:56:21.766Z,18.45
2023-03-12T10:57:17.361Z,18.42
2023-03-12T10:58:12.909Z,18.52
2023-03-12T10:59:08.451Z,18.34
2023-03-12T11:00:04.019Z,18.20
2023-03-12T11:01:00.538Z,18.26
2023-03-12T11:01:56.195Z,18.13
2023-03-12T11:02:51.647Z,18.02
2023-03-12T11:03:47.185Z,17.97
2023-03-12T11:04:42.734Z,18.02
2023-03-12T11:05:38.310Z,17.94
2023-03-12T11:06:33.836Z,18.11
2023-03-12T11:07:29.367Z,18.09
2023-03-12T11:08:24.921Z,17.75
2023-03-12T11:09:20.470Z,17.45
2023-03-12T11:10:16.000Z,17.16
2023-03-12T11:11:11.578Z,17.04
2023-03-12T11:12:07.089Z,16.94
2023-03-12T11:13:02.646Z,17.13
2023-03-12T11:13:58.168Z,17.04
2023-03-12T11:14:53.712Z,16.98
2023-03-12T11:15:49.310Z,16.90
2023-03-12T11:16:44.812Z,16.73
2023-03-12T11:17:40.422Z,16.62
2023-03-12T11:18:36.040Z,16.73
2023-03-12T11:19:31.551Z,16.57
2023-03-12T11:20:27.104Z,16.34
2023-03-12T11:21:22.655Z,16.08
2023-03-12T11:22:18.224Z,15.99
2023-03-12T11:23:13.792Z,15.93
2023-03-12T11:24:09.349Z,15.81
2023-03-12T11:25:04.888Z,15.85
2023-03-12T11:26:00.435Z,15.84
2023-03-12T11:26:56.030Z,15.66
2023-03-12T11:27:51.579Z,15.72
2023-03-12T11:28:47.150Z,15.87
2023-03-12T11:29:42.810Z,15.96
2023-03-12T11:30:38.269Z,15.83
2023-03-12T11:31:33.912Z,15.65
2023-03-12T11:32:29.407Z,15.50
2023-03-12T11:33:25.374Z,15.45
2023-03-12T11:34:21.965Z,15.19
2023-03-12T11:35:17.532Z,15.03
2023-03-12T11:36:13.043Z,14.92
2023-03-12T11:37:08.617Z,15.07
2023-03-12T11:38:05.177Z,15.03
2023-03-12T11:39:00.719Z,14.97
2023-03-12T11:39:56.264Z,15.05
2023-03-12T11:40:51.800Z,14.93
2023-03-12T11:41:47.348Z,15.10
2023-03-12T11:42:42.892Z,15.04
2023-03-12T11:43:43.726Z,15.05
2023-03-12T11:44:33.981Z,14.82
2023-03-12T11:45:29.538Z,14.73
2023-03-12T11:46:25.136Z,14.70
2023-03-12T11:47:20.683Z,14.67
2023-03-12T11:48:16.197Z,14.64
2023-03-12T11:49:11.921Z,14.64
2023-03-12T11:50:07.465Z,14.33
2023-03-12T11:51:03.019Z,14.09
2023-03-12T11:51:58.565Z,14.09
2023-03-12T11:52:54.106Z,14.12
2023-03-12T11:53:50.121Z,13.72
2023-03-12T11:54:45.676Z,13.45
2023-03-12T11:55:41.747Z,13.40
2023-03-12T11:56:37.301Z,13.40
2023-03-12T11:57:32.845Z,13.40
2023-03-12T11:58:28.396Z,13.36
2023-03-12T11:59:23.943Z,13.29
2023-03-12T12:00:19.572Z,13.42
2023-03-12T12:01:15.040Z,13.42
2023-03-12T12:02:10.692Z,13.38
2023-03-12T12:03:06.223Z,13.17
2023-03-12T12:04:01.679Z,13.05
2023-03-12T12:04:57.221Z,12.96
2023-03-12T12:05:52.760Z,13.05
2023-03-12T12:06:48.405Z,13.14
2023-03-12T12:07:43.850Z,13.08
2023-03-12T12:08:39.388Z,13.04
2023-03-12T12:09:34.898Z,12.93
2023-03-12T12:10:31.457Z,12.84
2023-03-12T12:11:26.968Z,12.88
2023-03-12T12:12:22.499Z,12.66
2023-03-12T12:13:18.051Z,12.55
2023-03-12T12:14:13.588Z,12.48
2023-03-12T12:15:09.110Z,12.58
2023-03-12T12:16:04.694Z,12.58